DEBRC EDDS-

Flight info

Callsign DEBRC
Flight time N/A
Altitude
Route
Aircraft C172

Departure

Time 2026-05-06 19:18
Airport Stuttgart Airport (EDDS)

Arrival

Time N/A
Airport -
Time Latitude Longitude Altitude Speed Heading
2026-05-06 19:07 48.69169 9.21313 1280 ft 0 kts 197°
2026-05-06 19:13 48.69154 9.21305 1280 ft 7 kts 214°
2026-05-06 19:13 48.69117 9.21300 1280 ft 9 kts 161°
2026-05-06 19:13 48.69089 9.21365 1280 ft 9 kts 76°
2026-05-06 19:13 48.69106 9.21450 1280 ft 7 kts 72°
2026-05-06 19:14 48.69121 9.21526 1280 ft 12 kts 73°
2026-05-06 19:14 48.69145 9.21650 1280 ft 10 kts 67°
2026-05-06 19:14 48.69162 9.21736 1280 ft 8 kts 75°
2026-05-06 19:14 48.69186 9.21869 1280 ft 18 kts 72°
2026-05-06 19:15 48.69218 9.22044 1280 ft 16 kts 74°
2026-05-06 19:15 48.69248 9.22195 1280 ft 14 kts 74°
2026-05-06 19:15 48.69281 9.22364 1280 ft 18 kts 74°
2026-05-06 19:15 48.69267 9.22472 1280 ft 9 kts 164°
2026-05-06 19:16 48.69203 9.22499 1280 ft 10 kts 163°
2026-05-06 19:16 48.69143 9.22528 1280 ft 9 kts 160°
2026-05-06 19:16 48.69058 9.22530 1280 ft 13 kts 225°
2026-05-06 19:16 48.69006 9.22290 1280 ft 44 kts 255°
2026-05-06 19:17 48.68891 9.21679 1281 ft 76 kts 257°
2026-05-06 19:17 48.68738 9.20874 1383 ft 82 kts 255°
2026-05-06 19:17 48.68585 9.20021 1503 ft 86 kts 256°
2026-05-06 19:17 48.68422 9.19142 1635 ft 88 kts 254°
2026-05-06 19:18 48.68027 9.18505 1780 ft 88 kts 195°
2026-05-06 19:18 48.67457 9.18772 1855 ft 95 kts 131°
2026-05-06 19:18 48.67351 9.19728 1929 ft 98 kts 79°
2026-05-06 19:18 48.67484 9.20782 1954 ft 102 kts 79°
2026-05-06 19:19 48.67626 9.21819 1973 ft 104 kts 78°
2026-05-06 19:19 48.67806 9.22896 1970 ft 106 kts 75°
2026-05-06 19:19 48.68014 9.23976 1973 ft 106 kts 72°
2026-05-06 19:19 48.68232 9.25014 2041 ft 100 kts 83°
2026-05-06 19:20 48.68077 9.25969 2127 ft 96 kts 129°
2026-05-06 19:20 48.67501 9.26428 2216 ft 94 kts 185°
2026-05-06 19:20 48.67068 9.25815 2272 ft 92 kts 263°
2026-05-06 19:20 48.67298 9.24913 2245 ft 101 kts 317°
2026-05-06 19:21 48.67955 9.24610 2253 ft 102 kts
2026-05-06 19:21 48.68522 9.25141 2260 ft 98 kts 59°
2026-05-06 19:21 48.68641 9.26184 2161 ft 103 kts 92°
2026-05-06 19:21 48.68459 9.27179 2177 ft 97 kts 120°
2026-05-06 19:22 48.68018 9.27843 2249 ft 86 kts 161°
2026-05-06 19:22 48.67473 9.27681 2248 ft 83 kts 232°
2026-05-06 19:22 48.67402 9.26847 2202 ft 88 kts 297°
2026-05-06 19:22 48.67924 9.26271 2017 ft 101 kts 341°
2026-05-06 19:23 48.68595 9.25965 1870 ft 102 kts 341°
2026-05-06 19:23 48.69195 9.25407 1648 ft 104 kts 308°
2026-05-06 19:23 48.69368 9.24364 1382 ft 104 kts 268°
2026-05-06 19:23 48.69203 9.23368 1303 ft 93 kts 254°
2026-05-06 19:24 48.69020 9.22408 1397 ft 97 kts 255°
2026-05-06 19:24 48.68847 9.21424 1514 ft 98 kts 255°
2026-05-06 19:24 48.68645 9.20417 1606 ft 100 kts 253°
2026-05-06 19:24 48.68401 9.19451 1740 ft 98 kts 238°
2026-05-06 19:25 48.67798 9.18995 1827 ft 102 kts 183°
2026-05-06 19:25 48.67204 9.19426 1973 ft 100 kts 124°
2026-05-06 19:25 48.67117 9.20486 1994 ft 109 kts 76°
2026-05-06 19:25 48.67309 9.21604 2061 ft 110 kts 76°
2026-05-06 19:26 48.67514 9.22718 2115 ft 113 kts 73°
2026-05-06 19:26 48.67768 9.23900 2066 ft 120 kts 72°
2026-05-06 19:26 48.67994 9.25131 2010 ft 124 kts 82°
2026-05-06 19:26 48.67875 9.26365 2094 ft 115 kts 125°
2026-05-06 19:27 48.67235 9.26839 2287 ft 103 kts 185°
2026-05-06 19:27 48.66660 9.26238 2325 ft 106 kts 248°
2026-05-06 19:27 48.66724 9.25155 2298 ft 108 kts 301°
2026-05-06 19:27 48.67345 9.24651 2299 ft 106 kts
2026-05-06 19:28 48.67890 9.25364 2198 ft 110 kts 64°
2026-05-06 19:28 48.68126 9.26403 2029 ft 101 kts 73°
2026-05-06 19:28 48.68299 9.27376 1901 ft 91 kts 77°
2026-05-06 19:28 48.68431 9.28288 1860 ft 85 kts 78°
2026-05-06 19:29 48.68638 9.29086 1797 ft 82 kts 42°
2026-05-06 19:29 48.69139 9.29489 1764 ft 80 kts 24°
2026-05-06 19:29 48.69656 9.29798 1760 ft 79 kts
2026-05-06 19:29 48.70043 9.29352 1681 ft 80 kts 276°
2026-05-06 19:30 48.70056 9.28510 1588 ft 80 kts 270°
2026-05-06 19:30 48.70008 9.27638 1539 ft 86 kts 261°
2026-05-06 19:30 48.69863 9.26754 1522 ft 86 kts 254°
2026-05-06 19:30 48.69677 9.25878 1467 ft 89 kts 253°
2026-05-06 19:31 48.69501 9.24944 1412 ft 95 kts 256°
2026-05-06 19:31 48.69320 9.23949 1307 ft 101 kts 255°
2026-05-06 19:31 48.68948 9.21990 1325 ft 91 kts 256°
2026-05-06 19:32 48.68765 9.21058 1341 ft 93 kts 254°
2026-05-06 19:32 48.68649 9.20451 1415 ft 88 kts 255°
2026-05-06 19:32 48.68428 9.19272 1536 ft 87 kts 255°
2026-05-06 19:32 48.68319 9.18686 1626 ft 85 kts 256°
2026-05-06 19:33 48.68011 9.17967 1735 ft 85 kts 213°
2026-05-06 19:33 48.67464 9.18108 1807 ft 94 kts 126°
2026-05-06 19:33 48.67377 9.19048 1919 ft 94 kts 84°
2026-05-06 19:33 48.67601 9.20373 1977 ft 104 kts 73°
2026-05-06 19:34 48.67746 9.21083 2034 ft 104 kts 71°
2026-05-06 19:34 48.67976 9.22161 2015 ft 113 kts 73°
2026-05-06 19:34 48.68209 9.23274 2045 ft 111 kts 73°
2026-05-06 19:34 48.68447 9.24416 1929 ft 111 kts 71°
2026-05-06 19:35 48.68770 9.25431 1813 ft 103 kts 32°
2026-05-06 19:35 48.69299 9.25089 1753 ft 103 kts 293°
2026-05-06 19:35 48.69319 9.23923 1374 ft 114 kts 252°
2026-05-06 19:35 48.69119 9.22882 1325 ft 98 kts 256°
2026-05-06 19:36 48.68962 9.21937 1380 ft 91 kts 253°
2026-05-06 19:36 48.68770 9.21031 1410 ft 87 kts 255°
2026-05-06 19:36 48.68606 9.20165 1482 ft 86 kts 254°
2026-05-06 19:36 48.68420 9.19296 1555 ft 89 kts 254°
2026-05-06 19:37 48.68048 9.18638 1694 ft 87 kts 195°
2026-05-06 19:37 48.67523 9.19026 1742 ft 94 kts 118°
2026-05-06 19:37 48.67489 9.20041 1731 ft 104 kts 80°
2026-05-06 19:37 48.67639 9.21061 1802 ft 105 kts 76°
2026-05-06 19:38 48.67833 9.22180 1699 ft 117 kts 77°
2026-05-06 19:38 48.68022 9.23371 1699 ft 116 kts 76°
2026-05-06 19:38 48.68191 9.24449 1647 ft 95 kts 78°
2026-05-06 19:38 48.68382 9.25376 1620 ft 89 kts 70°
2026-05-06 19:39 48.68639 9.26215 1598 ft 85 kts 44°
2026-05-06 19:39 48.69163 9.26451 1582 ft 82 kts 348°
2026-05-06 19:39 48.69461 9.25826 1517 ft 83 kts 288°
2026-05-06 19:39 48.69507 9.24923 1426 ft 91 kts 257°
2026-05-06 19:40 48.69335 9.23943 1330 ft 98 kts 255°
2026-05-06 19:40 48.69133 9.22951 1314 ft 100 kts 256°
2026-05-06 19:40 48.68954 9.21980 1381 ft 93 kts 257°
2026-05-06 19:40 48.68776 9.21053 1417 ft 92 kts 253°
2026-05-06 19:41 48.68602 9.20113 1455 ft 91 kts 256°
2026-05-06 19:41 48.68295 9.19302 1583 ft 90 kts 220°
2026-05-06 19:41 48.67768 9.18788 1732 ft 90 kts 216°
2026-05-06 19:41 48.67257 9.18189 1844 ft 93 kts 224°
2026-05-06 19:42 48.66752 9.17563 1963 ft 94 kts 220°
2026-05-06 19:42 48.66229 9.16947 2072 ft 97 kts 214°
2026-05-06 19:42 48.65607 9.16526 2157 ft 102 kts 202°
2026-05-06 19:42 48.64930 9.16167 2222 ft 106 kts 201°
2026-05-06 19:43 48.64232 9.15785 2305 ft 106 kts 202°
2026-05-06 19:43 48.63524 9.15406 2349 ft 110 kts 199°
2026-05-06 19:43 48.62783 9.15063 2361 ft 114 kts 200°
2026-05-06 19:43 48.62030 9.14661 2397 ft 115 kts 202°
2026-05-06 19:44 48.61288 9.14223 2453 ft 113 kts 203°
2026-05-06 19:44 48.60554 9.13775 2478 ft 115 kts 205°
2026-05-06 19:44 48.59829 9.13265 2515 ft 114 kts 208°
2026-05-06 19:44 48.59170 9.12692 2676 ft 106 kts 214°
2026-05-06 19:45 48.58575 9.12031 2784 ft 104 kts 217°
2026-05-06 19:45 48.57913 9.11347 2577 ft 125 kts 217°
2026-05-06 19:45 48.57238 9.10523 2514 ft 124 kts 224°
2026-05-06 19:45 48.56654 9.09572 2495 ft 122 kts 234°
2026-05-06 19:46 48.56205 9.08472 2415 ft 125 kts 244°
2026-05-06 19:46 48.55819 9.07347 2460 ft 117 kts 233°
2026-05-06 19:46 48.55141 9.07036 2634 ft 106 kts 149°
2026-05-06 19:46 48.54898 9.08093 2624 ft 114 kts 79°
2026-05-06 19:47 48.55383 9.09015 2631 ft 116 kts 31°
2026-05-06 19:47 48.56040 9.09685 2686 ft 116 kts 34°
2026-05-06 19:47 48.56701 9.10406 2696 ft 119 kts 38°
2026-05-06 19:47 48.57348 9.11196 2725 ft 118 kts 39°
2026-05-06 19:48 48.57971 9.12013 2748 ft 118 kts 42°
2026-05-06 19:48 48.58524 9.12959 2732 ft 121 kts 52°
2026-05-06 19:48 48.59009 9.13966 2752 ft 120 kts 55°
2026-05-06 19:48 48.59464 9.15026 2768 ft 120 kts 59°
2026-05-06 19:49 48.59906 9.16157 2647 ft 129 kts 60°
2026-05-06 19:49 48.60325 9.17312 2607 ft 128 kts 63°
2026-05-06 19:49 48.60710 9.18529 2569 ft 126 kts 65°
2026-05-06 19:49 48.60970 9.19800 2519 ft 127 kts 81°
2026-05-06 19:50 48.61072 9.21111 2491 ft 126 kts 85°
2026-05-06 19:50 48.61115 9.22451 2432 ft 128 kts 91°
2026-05-06 19:50 48.61321 9.23675 2510 ft 117 kts 44°
2026-05-06 19:50 48.62095 9.23859 2367 ft 126 kts 338°
2026-05-06 19:51 48.62911 9.23419 2319 ft 126 kts 349°
2026-05-06 19:51 48.63776 9.23322 2298 ft 123 kts
2026-05-06 19:51 48.64642 9.23399 2211 ft 126 kts
2026-05-06 19:51 48.65494 9.23674 2182 ft 123 kts 16°
2026-05-06 19:52 48.66285 9.24152 2164 ft 123 kts 29°
2026-05-06 19:52 48.66923 9.25024 2141 ft 124 kts 56°
2026-05-06 19:52 48.67383 9.26106 2156 ft 121 kts 55°
2026-05-06 19:52 48.67953 9.27027 2027 ft 121 kts 38°
2026-05-06 19:53 48.68719 9.27393 1881 ft 117 kts 343°
2026-05-06 19:53 48.69242 9.26556 1746 ft 116 kts 296°
2026-05-06 19:53 48.69447 9.25385 1567 ft 112 kts 274°
2026-05-06 19:53 48.69388 9.24280 1313 ft 100 kts 253°
2026-05-06 19:54 48.69221 9.23388 1302 ft 80 kts 254°
2026-05-06 19:54 48.69061 9.22542 1375 ft 90 kts 256°
2026-05-06 19:54 48.68856 9.21602 1441 ft 98 kts 252°
2026-05-06 19:54 48.68687 9.20596 1564 ft 96 kts 259°
2026-05-06 19:55 48.68545 9.19603 1692 ft 96 kts 252°
2026-05-06 19:55 48.68148 9.18778 1765 ft 101 kts 216°
2026-05-06 19:55 48.67477 9.18451 1839 ft 104 kts 181°
2026-05-06 19:55 48.66828 9.18975 1825 ft 112 kts 123°
2026-05-06 19:56 48.66800 9.20064 1938 ft 110 kts 79°
2026-05-06 19:56 48.66926 9.21240 1956 ft 114 kts 84°
2026-05-06 19:56 48.67023 9.22409 2017 ft 114 kts 82°
2026-05-06 19:56 48.67202 9.23592 2038 ft 116 kts 75°
2026-05-06 19:57 48.67393 9.24767 2169 ft 105 kts 100°
2026-05-06 19:57 48.66893 9.25282 2237 ft 102 kts 197°
2026-05-06 19:57 48.66539 9.24478 2291 ft 99 kts 274°
2026-05-06 19:57 48.66897 9.23547 2209 ft 110 kts 327°
2026-05-06 19:58 48.67615 9.23564 2226 ft 110 kts 38°
2026-05-06 19:58 48.67876 9.24664 2050 ft 121 kts 101°
2026-05-06 19:58 48.67387 9.25531 2103 ft 108 kts 166°
2026-05-06 19:58 48.66711 9.25215 2097 ft 100 kts 244°
2026-05-06 19:59 48.66874 9.24335 2156 ft 96 kts 330°
2026-05-06 19:59 48.67599 9.24237 1999 ft 112 kts 13°
2026-05-06 19:59 48.68182 9.24939 1963 ft 110 kts 66°
2026-05-06 19:59 48.68046 9.25965 1923 ft 99 kts 143°
2026-05-06 20:00 48.67448 9.25943 1878 ft 88 kts 230°
2026-05-06 20:00 48.67396 9.25096 1803 ft 88 kts 298°
2026-05-06 20:00 48.67892 9.24632 1698 ft 91 kts
2026-05-06 20:00 48.68273 9.25311 1648 ft 96 kts 83°
2026-05-06 20:01 48.68083 9.26260 1660 ft 95 kts 130°
2026-05-06 20:01 48.67523 9.26537 1722 ft 88 kts 203°
2026-05-06 20:01 48.67155 9.25875 1761 ft 87 kts 257°
2026-05-06 20:01 48.67192 9.24964 1789 ft 88 kts 289°
2026-05-06 20:02 48.67554 9.24213 1782 ft 93 kts 329°
2026-05-06 20:02 48.68197 9.24114 1749 ft 99 kts 26°
2026-05-06 20:02 48.68613 9.24958 1623 ft 95 kts 65°
2026-05-06 20:02 48.69025 9.25563 1605 ft 82 kts 352°
2026-05-06 20:03 48.69362 9.24870 1432 ft 89 kts 291°
2026-05-06 20:03 48.69325 9.24005 1291 ft 80 kts 257°
2026-05-06 20:03 48.69188 9.23254 1324 ft 77 kts 255°
2026-05-06 20:03 48.69070 9.22424 1436 ft 82 kts 261°
2026-05-06 20:04 48.68907 9.21551 1490 ft 94 kts 249°
2026-05-06 20:04 48.68660 9.20600 1553 ft 100 kts 252°
2026-05-06 20:04 48.68444 9.19594 1625 ft 103 kts 245°
2026-05-06 20:04 48.67904 9.19160 1829 ft 94 kts 160°
2026-05-06 20:05 48.67549 9.19927 1938 ft 97 kts 91°
2026-05-06 20:05 48.67690 9.20995 1914 ft 110 kts 79°
2026-05-06 20:05 48.67839 9.22152 1935 ft 113 kts 78°
2026-05-06 20:05 48.67992 9.23342 1975 ft 112 kts 82°
2026-05-06 20:06 48.68091 9.24511 1998 ft 107 kts 82°
2026-05-06 20:06 48.68376 9.25497 1894 ft 112 kts 41°
2026-05-06 20:06 48.69019 9.25728 1852 ft 87 kts 332°
2026-05-06 20:06 48.69396 9.24846 1567 ft 112 kts 287°
2026-05-06 20:07 48.69278 9.23745 1302 ft 101 kts 256°
2026-05-06 20:07 48.69117 9.22861 1280 ft 74 kts 254°
2026-05-06 20:07 48.68998 9.22267 1280 ft 49 kts 254°
2026-05-06 20:07 48.68941 9.21841 1280 ft 35 kts 268°
2026-05-06 20:08 48.68973 9.21558 1280 ft 18 kts 284°
2026-05-06 20:08 48.68987 9.21479 1280 ft 0 kts 282°
2026-05-06 20:09 48.68995 9.21428 1280 ft 17 kts 284°
2026-05-06 20:09 48.69038 9.21151 1280 ft 26 kts 282°
2026-05-06 20:09 48.69084 9.21034 1280 ft 6 kts 309°
2026-05-06 20:09 48.69126 9.20965 1280 ft 10 kts 312°
2026-05-06 20:10 48.69174 9.21021 1280 ft 9 kts 116°
2026-05-06 20:10 48.69136 9.21014 1280 ft 4 kts 191°
2026-05-06 20:10 48.69129 9.21012 1280 ft 0 kts 191°